createdAt,value
2024-05-09T00:00:43.761Z,7.75
2024-05-09T00:03:12.433Z,8.90
2024-05-09T00:05:44.424Z,9.13
2024-05-09T00:08:12.930Z,8.93
2024-05-09T00:10:41.304Z,6.45
2024-05-09T00:13:11.102Z,6.32
2024-05-09T00:15:39.201Z,5.97
2024-05-09T00:18:07.953Z,5.70
2024-05-09T00:20:40.011Z,6.53
2024-05-09T00:23:16.163Z,7.63
2024-05-09T00:25:44.392Z,7.90
2024-05-09T00:28:12.971Z,7.67
2024-05-09T00:30:42.629Z,6.47
2024-05-09T00:33:11.471Z,7.07
2024-05-09T00:35:40.145Z,7.40
2024-05-09T00:38:08.374Z,7.38
2024-05-09T00:40:42.190Z,9.27
2024-05-09T00:43:12.724Z,8.68
2024-05-09T00:45:41.553Z,6.50
2024-05-09T00:48:11.688Z,6.68
2024-05-09T00:50:42.281Z,8.95
2024-05-09T00:53:15.910Z,8.57
2024-05-09T00:55:44.748Z,5.75
2024-05-09T00:58:13.439Z,11.15
2024-05-09T01:00:41.841Z,7.45
2024-05-09T01:03:12.595Z,5.90
2024-05-09T01:05:43.007Z,6.13
2024-05-09T01:08:12.364Z,7.03
2024-05-09T01:10:43.781Z,9.10
2024-05-09T01:13:12.986Z,7.38
2024-05-09T01:15:40.799Z,6.53
2024-05-09T01:18:12.670Z,9.70
2024-05-09T01:20:44.755Z,6.65
2024-05-09T01:23:15.776Z,7.55
2024-05-09T01:25:45.955Z,5.40
2024-05-09T01:28:14.351Z,8.60
2024-05-09T01:30:41.933Z,6.83
2024-05-09T01:33:11.327Z,6.32
2024-05-09T01:35:42.304Z,7.55
2024-05-09T01:38:13.968Z,8.57
2024-05-09T01:40:41.927Z,7.63
2024-05-09T01:43:10.892Z,6.47
2024-05-09T01:45:41.027Z,6.68
2024-05-09T01:48:10.483Z,8.82
2024-05-09T01:50:41.735Z,7.57
2024-05-09T01:53:13.269Z,7.63
2024-05-09T01:55:41.481Z,9.03
2024-05-09T01:58:10.003Z,7.00
2024-05-09T02:00:41.384Z,5.80
2024-05-09T02:03:15.083Z,6.95
2024-05-09T02:05:50.505Z,7.55
2024-05-09T02:08:20.301Z,5.80
2024-05-09T02:10:50.509Z,7.10
2024-05-09T02:13:18.646Z,5.72
2024-05-09T02:15:46.307Z,7.28
2024-05-09T02:18:14.395Z,6.05
2024-05-09T02:20:43.441Z,6.00
2024-05-09T02:23:12.263Z,7.50
2024-05-09T02:25:41.508Z,9.52
2024-05-09T02:28:09.136Z,7.00
2024-05-09T02:30:40.674Z,6.35
2024-05-09T02:33:12.819Z,7.63
2024-05-09T02:35:43.371Z,6.55
2024-05-09T02:38:12.653Z,5.90
2024-05-09T02:40:40.916Z,6.60
2024-05-09T02:43:10.579Z,6.60
2024-05-09T02:45:40.053Z,6.80
2024-05-09T02:48:11.214Z,8.52
2024-05-09T02:50:42.390Z,5.80
2024-05-09T02:53:11.920Z,8.45
2024-05-09T02:55:40.189Z,7.60
2024-05-09T02:58:08.606Z,8.20
2024-05-09T03:00:40.285Z,6.85
2024-05-09T03:03:13.410Z,7.93
2024-05-09T03:05:44.261Z,9.55
2024-05-09T03:08:12.314Z,9.27
2024-05-09T03:10:40.181Z,8.27
2024-05-09T03:13:08.913Z,8.55
2024-05-09T03:15:37.055Z,6.82
2024-05-09T03:18:07.148Z,8.63
2024-05-09T03:20:36.350Z,7.53
2024-05-09T03:23:06.682Z,10.07
2024-05-09T03:25:34.610Z,11.00
2024-05-09T03:28:02.313Z,8.57
2024-05-09T03:30:39.047Z,11.82
2024-05-09T03:33:15.830Z,8.88
2024-05-09T03:35:44.888Z,8.70
2024-05-09T03:38:12.746Z,10.13
2024-05-09T03:40:48.752Z,9.23
2024-05-09T03:43:17.812Z,8.75
2024-05-09T03:45:46.117Z,8.63
2024-05-09T03:48:14.198Z,7.60
2024-05-09T03:50:42.248Z,9.25
2024-05-09T03:53:14.460Z,11.77
2024-05-09T03:55:42.814Z,6.45
2024-05-09T03:58:10.456Z,7.70
2024-05-09T04:00:39.816Z,12.43
2024-05-09T04:03:11.194Z,8.10
2024-05-09T04:05:46.258Z,8.02
2024-05-09T04:08:15.378Z,10.13
2024-05-09T04:10:43.500Z,10.40
2024-05-09T04:13:11.576Z,16.13
2024-05-09T04:15:39.769Z,8.05
2024-05-09T04:18:07.492Z,8.65
2024-05-09T04:20:39.184Z,7.13
2024-05-09T04:23:13.835Z,7.22
2024-05-09T04:25:45.164Z,8.57
2024-05-09T04:28:13.708Z,7.32
2024-05-09T04:30:42.151Z,10.88
2024-05-09T04:33:12.560Z,10.20
2024-05-09T04:35:43.498Z,7.53
2024-05-09T04:38:12.858Z,7.90
2024-05-09T04:40:41.193Z,7.45
2024-05-09T04:43:16.429Z,8.48
2024-05-09T04:45:44.215Z,9.13
2024-05-09T04:48:12.173Z,7.95
2024-05-09T04:50:40.157Z,9.73
2024-05-09T04:53:10.346Z,11.60
2024-05-09T04:55:40.044Z,9.43
2024-05-09T04:58:11.200Z,10.73
2024-05-09T05:00:41.134Z,8.85
2024-05-09T05:03:14.606Z,9.90
2024-05-09T05:05:45.668Z,10.00
2024-05-09T05:08:15.676Z,9.40
2024-05-09T05:10:44.513Z,9.80
2024-05-09T05:13:25.086Z,11.93
2024-05-09T05:15:57.440Z,11.00
2024-05-09T05:18:29.565Z,11.90
2024-05-09T05:20:58.692Z,10.93
2024-05-09T05:23:26.674Z,11.07
2024-05-09T05:25:55.614Z,12.00
2024-05-09T05:28:23.854Z,10.50
2024-05-09T05:30:51.457Z,10.15
2024-05-09T05:33:19.921Z,12.63
2024-05-09T05:35:47.929Z,8.95
2024-05-09T05:38:15.758Z,14.60
2024-05-09T05:40:43.443Z,10.20
2024-05-09T05:43:18.253Z,11.68
2024-05-09T05:45:46.710Z,11.30
2024-05-09T05:48:18.210Z,10.82
2024-05-09T05:50:46.727Z,16.05
2024-05-09T05:53:14.594Z,11.23
2024-05-09T05:55:43.205Z,14.88
2024-05-09T05:58:11.966Z,8.88
2024-05-09T06:00:41.923Z,8.75
2024-05-09T06:03:12.740Z,10.63
2024-05-09T06:05:44.018Z,9.97
2024-05-09T06:08:12.629Z,11.30
2024-05-09T06:10:41.483Z,12.25
2024-05-09T06:13:13.123Z,14.70
2024-05-09T06:15:41.625Z,9.52
2024-05-09T06:18:11.131Z,10.83
2024-05-09T06:20:43.226Z,9.30
2024-05-09T06:23:12.930Z,12.30
2024-05-09T06:25:42.610Z,11.80
2024-05-09T06:28:10.927Z,8.82
2024-05-09T06:30:42.507Z,11.50
2024-05-09T06:33:13.564Z,15.80
2024-05-09T06:35:44.066Z,12.52
2024-05-09T06:38:12.397Z,12.10
2024-05-09T06:40:43.077Z,11.02
2024-05-09T06:43:16.580Z,8.70
2024-05-09T06:45:48.441Z,13.15
2024-05-09T06:48:19.833Z,12.15
2024-05-09T06:50:48.494Z,12.13
2024-05-09T06:53:17.400Z,11.63
2024-05-09T06:55:45.293Z,47.40
2024-05-09T06:58:12.974Z,9.63
2024-05-09T07:00:42.196Z,12.85
2024-05-09T07:03:12.278Z,11.90
2024-05-09T07:05:41.746Z,11.80
2024-05-09T07:08:09.863Z,12.83
2024-05-09T07:10:38.400Z,8.88
2024-05-09T07:13:11.472Z,9.52
2024-05-09T07:15:39.682Z,9.95
2024-05-09T07:18:12.587Z,13.23
2024-05-09T07:20:41.068Z,8.87
2024-05-09T07:23:12.798Z,8.43
2024-05-09T07:25:41.732Z,12.50
2024-05-09T07:28:17.450Z,11.18
2024-05-09T07:30:45.960Z,9.30
2024-05-09T07:33:23.034Z,8.20
2024-05-09T07:35:52.475Z,11.80
2024-05-09T07:38:20.412Z,13.10
2024-05-09T07:40:48.455Z,10.15
2024-05-09T07:43:16.554Z,10.55
2024-05-09T07:45:52.401Z,11.77
2024-05-09T07:52:38.360Z,9.07
2024-05-09T07:53:50.002Z,8.82
2024-05-09T07:56:22.721Z,11.80
2024-05-09T07:58:56.017Z,9.13
2024-05-09T08:01:26.792Z,8.80
2024-05-09T08:03:55.718Z,14.98
2024-05-09T08:06:24.276Z,10.10
2024-05-09T08:08:51.810Z,10.60
2024-05-09T08:11:20.807Z,10.60
2024-05-09T08:13:48.470Z,8.38
2024-05-09T08:16:16.319Z,10.90
2024-05-09T08:18:43.982Z,9.00
2024-05-09T08:21:11.705Z,11.75
2024-05-09T08:23:39.270Z,10.50
2024-05-09T08:26:06.839Z,11.88
2024-05-09T08:28:34.372Z,8.70
2024-05-09T08:31:05.158Z,12.73
2024-05-09T08:33:34.472Z,8.23
2024-05-09T08:36:02.116Z,10.17
2024-05-09T08:38:29.660Z,9.77
2024-05-09T08:40:57.396Z,10.05
2024-05-09T08:43:27.027Z,8.90
2024-05-09T08:45:54.639Z,9.13
2024-05-09T08:48:24.398Z,10.27
2024-05-09T08:50:55.575Z,8.98
2024-05-09T08:53:23.232Z,8.82
2024-05-09T08:55:52.191Z,8.10
2024-05-09T08:58:20.288Z,9.98
2024-05-09T09:00:49.581Z,9.57
2024-05-09T09:03:19.905Z,10.32
2024-05-09T09:06:02.719Z,8.93
2024-05-09T09:08:30.547Z,11.50
2024-05-09T09:11:01.117Z,15.13
2024-05-09T09:13:28.971Z,12.60
2024-05-09T09:16:00.415Z,9.70
2024-05-09T09:18:29.626Z,8.15
2024-05-09T09:20:57.535Z,12.38
2024-05-09T09:23:28.605Z,9.98
2024-05-09T09:26:00.454Z,8.67
2024-05-09T09:28:28.362Z,8.10
2024-05-09T09:31:03.529Z,15.73
2024-05-09T09:33:36.212Z,11.05
2024-05-09T09:36:06.842Z,13.95
2024-05-09T09:38:38.046Z,12.43
2024-05-09T09:41:08.354Z,14.90
2024-05-09T09:43:37.222Z,11.63
2024-05-09T09:46:08.611Z,16.73
2024-05-09T09:48:40.710Z,13.80
2024-05-09T09:51:08.581Z,11.20
2024-05-09T09:53:38.779Z,10.35
2024-05-09T09:56:09.182Z,12.85
2024-05-09T09:58:38.972Z,19.63
2024-05-09T10:01:06.658Z,14.38
2024-05-09T10:03:34.457Z,10.67
2024-05-09T10:06:02.614Z,10.15
2024-05-09T10:08:30.573Z,10.85
2024-05-09T10:10:58.310Z,11.50
2024-05-09T10:13:34.064Z,8.10
2024-05-09T10:16:09.060Z,13.00
2024-05-09T10:18:38.097Z,12.95
2024-05-09T10:21:19.463Z,11.05
2024-05-09T10:24:02.741Z,8.48
2024-05-09T10:26:39.819Z,14.57
2024-05-09T10:29:18.006Z,15.17
2024-05-09T10:31:47.637Z,10.57
2024-05-09T10:34:19.907Z,8.48
2024-05-09T10:36:53.252Z,11.88
2024-05-09T10:39:26.261Z,8.45
2024-05-09T10:41:53.809Z,11.93
2024-05-09T10:44:23.874Z,14.77
2024-05-09T10:46:54.093Z,12.52
2024-05-09T10:49:21.916Z,11.55
2024-05-09T10:51:50.945Z,9.88
2024-05-09T10:54:18.525Z,8.47
2024-05-09T10:56:46.375Z,8.90
2024-05-09T10:59:13.899Z,12.07
2024-05-09T11:01:41.692Z,12.38
2024-05-09T11:04:09.851Z,9.23
2024-05-09T11:06:38.707Z,12.13
2024-05-09T11:09:06.623Z,12.13
2024-05-09T11:11:34.536Z,11.40
2024-05-09T11:14:12.759Z,10.40
2024-05-09T11:16:40.482Z,9.90
2024-05-09T11:19:14.128Z,9.17
2024-05-09T11:21:42.362Z,8.18
2024-05-09T11:24:11.634Z,9.15
2024-05-09T11:26:39.563Z,11.80
2024-05-09T11:29:07.442Z,9.88
2024-05-09T11:31:48.805Z,11.47
2024-05-09T11:34:17.095Z,8.63
2024-05-09T11:36:44.877Z,12.60
2024-05-09T11:39:15.104Z,10.57
2024-05-09T11:41:42.843Z,14.52
2024-05-09T11:44:10.650Z,11.33
2024-05-09T11:46:38.232Z,7.70
2024-05-09T11:49:05.941Z,12.02
2024-05-09T11:51:33.656Z,15.10
2024-05-09T11:54:01.235Z,8.43
2024-05-09T11:56:29.050Z,13.40
2024-05-09T11:58:56.911Z,7.43
2024-05-09T12:01:27.574Z,8.13
2024-05-09T12:03:55.704Z,9.43
2024-05-09T12:06:23.593Z,9.07
2024-05-09T12:08:51.155Z,11.03
2024-05-09T12:11:18.758Z,7.32
2024-05-09T12:13:46.559Z,10.75
2024-05-09T12:16:14.201Z,11.55
2024-05-09T12:18:42.134Z,10.55
2024-05-09T12:21:09.857Z,9.57
2024-05-09T12:23:38.097Z,9.05
2024-05-09T12:26:05.832Z,9.02
2024-05-09T12:28:33.419Z,7.80
2024-05-09T12:31:01.118Z,10.63
2024-05-09T12:33:29.966Z,11.23
2024-05-09T12:35:57.619Z,8.82
2024-05-09T12:38:25.672Z,8.65
2024-05-09T12:40:53.409Z,11.73
2024-05-09T12:43:21.067Z,12.18
2024-05-09T12:45:49.024Z,11.13
2024-05-09T12:48:16.899Z,9.27
2024-05-09T12:50:44.914Z,9.90
2024-05-09T12:53:12.608Z,10.77
2024-05-09T12:55:48.254Z,10.02
2024-05-09T12:58:24.903Z,10.03
2024-05-09T13:00:53.400Z,12.70
2024-05-09T13:03:22.676Z,11.27
2024-05-09T13:05:51.134Z,15.65
2024-05-09T13:08:18.940Z,18.08
2024-05-09T13:10:46.818Z,14.43
2024-05-09T13:13:14.716Z,12.57
2024-05-09T13:15:42.871Z,14.32
2024-05-09T13:18:10.662Z,16.60
2024-05-09T13:20:38.387Z,15.07
2024-05-09T13:23:08.077Z,17.07
2024-05-09T13:25:37.738Z,15.85
2024-05-09T13:28:07.153Z,19.27
2024-05-09T13:30:40.506Z,17.08
2024-05-09T13:33:12.167Z,20.75
2024-05-09T13:35:46.948Z,16.00
2024-05-09T13:38:21.424Z,15.40
2024-05-09T13:40:50.310Z,18.00
2024-05-09T13:43:19.064Z,17.10
2024-05-09T13:45:47.606Z,19.80
2024-05-09T13:48:15.595Z,15.73
2024-05-09T13:50:43.526Z,17.15
2024-05-09T13:53:11.097Z,14.77
2024-05-09T13:55:39.490Z,15.27
2024-05-09T13:58:08.131Z,11.93
2024-05-09T14:00:44.497Z,16.47
2024-05-09T14:03:18.298Z,11.82
2024-05-09T14:05:48.018Z,12.25
2024-05-09T14:08:18.162Z,11.90
2024-05-09T14:10:49.730Z,10.15
2024-05-09T14:13:17.806Z,11.67
2024-05-09T14:15:46.821Z,11.40
2024-05-09T14:18:15.101Z,12.88
2024-05-09T14:20:43.508Z,13.85
2024-05-09T14:23:11.689Z,14.10
2024-05-09T14:25:42.750Z,12.30
2024-05-09T14:28:12.813Z,16.85
2024-05-09T14:30:41.813Z,14.93
2024-05-09T14:33:10.185Z,14.50
2024-05-09T14:35:39.052Z,12.55
2024-05-09T14:38:08.874Z,12.53
2024-05-09T14:40:42.173Z,12.50
2024-05-09T14:43:13.268Z,11.80
2024-05-09T14:45:41.940Z,10.90
2024-05-09T14:48:10.414Z,12.13
2024-05-09T14:50:40.137Z,12.80
2024-05-09T14:53:10.525Z,11.90
2024-05-09T14:55:40.916Z,11.05
2024-05-09T14:58:10.571Z,11.82
2024-05-09T15:00:46.958Z,10.45
2024-05-09T15:03:19.552Z,11.93
2024-05-09T15:05:48.079Z,15.68
2024-05-09T15:08:18.612Z,14.57
2024-05-09T15:10:47.296Z,14.20
2024-05-09T15:13:16.886Z,17.10
2024-05-09T15:15:45.293Z,15.20
2024-05-09T15:18:14.380Z,16.20
2024-05-09T15:20:43.464Z,19.00
2024-05-09T15:23:11.483Z,16.90
2024-05-09T15:25:39.149Z,14.93
2024-05-09T15:28:09.972Z,16.20
2024-05-09T15:30:38.639Z,19.08
2024-05-09T15:33:07.854Z,18.90
2024-05-09T15:35:41.507Z,16.73
2024-05-09T15:38:10.204Z,15.50
2024-05-09T15:40:40.391Z,20.67
2024-05-09T15:43:11.194Z,19.27
2024-05-09T15:45:41.015Z,20.58
2024-05-09T15:48:10.438Z,16.42
2024-05-09T15:50:41.366Z,20.42
2024-05-09T15:53:12.402Z,17.83
2024-05-09T15:55:40.589Z,17.80
2024-05-09T15:58:08.646Z,19.15
2024-05-09T16:00:40.061Z,17.20
2024-05-09T16:03:12.616Z,18.63
2024-05-09T16:05:42.154Z,16.40
2024-05-09T16:08:10.327Z,18.55
2024-05-09T16:10:43.565Z,22.42
2024-05-09T16:13:12.996Z,17.15
2024-05-09T16:15:41.005Z,17.52
2024-05-09T16:18:09.006Z,17.73
2024-05-09T16:20:40.336Z,17.10
2024-05-09T16:23:10.663Z,16.90
2024-05-09T16:25:43.208Z,19.55
2024-05-09T16:28:11.194Z,21.02
2024-05-09T16:30:40.349Z,19.17
2024-05-09T16:33:09.550Z,16.77
2024-05-09T16:35:38.189Z,15.50
2024-05-09T16:38:06.529Z,17.70
2024-05-09T16:40:38.909Z,18.23
2024-05-09T16:43:11.038Z,15.90
2024-05-09T16:45:40.807Z,17.42
2024-05-09T16:48:09.365Z,16.33
2024-05-09T16:50:37.556Z,19.00
2024-05-09T16:53:06.545Z,16.58
2024-05-09T16:55:35.726Z,20.23
2024-05-09T16:58:04.470Z,17.30
2024-05-09T17:00:40.256Z,18.23
2024-05-09T17:03:13.477Z,18.77
2024-05-09T17:05:43.265Z,15.63
2024-05-09T17:08:11.716Z,16.17
2024-05-09T17:10:39.573Z,14.68
2024-05-09T17:13:08.219Z,11.70
2024-05-09T17:15:37.665Z,10.32
2024-05-09T17:18:10.220Z,13.15
2024-05-09T17:21:08.706Z,9.63
2024-05-09T17:23:36.684Z,9.27
2024-05-09T17:26:04.265Z,10.90
2024-05-09T17:28:33.539Z,14.88
2024-05-09T17:31:02.746Z,8.00
2024-05-09T17:33:30.850Z,10.27
2024-05-09T17:35:58.663Z,9.02
2024-05-09T17:38:26.553Z,8.55
2024-05-09T17:40:55.424Z,7.90
2024-05-09T17:43:23.316Z,10.10
2024-05-09T17:46:18.735Z,9.67
2024-05-09T17:49:11.689Z,14.80
2024-05-09T17:51:39.548Z,9.27
2024-05-09T17:54:07.305Z,9.77
2024-05-09T17:56:34.796Z,9.02
2024-05-09T17:59:04.031Z,14.07
2024-05-09T18:01:33.389Z,9.20
2024-05-09T18:04:03.437Z,12.32
2024-05-09T18:06:31.612Z,9.70
2024-05-09T18:08:59.659Z,10.45
2024-05-09T18:11:27.269Z,11.00
2024-05-09T18:13:54.851Z,9.73
2024-05-09T18:16:22.533Z,9.15
2024-05-09T18:18:50.637Z,10.52
2024-05-09T18:21:18.525Z,9.82
2024-05-09T18:23:46.202Z,9.87
2024-05-09T18:26:13.873Z,10.90
2024-05-09T18:28:41.540Z,10.20
2024-05-09T18:31:09.298Z,8.60
2024-05-09T18:33:37.167Z,8.07
2024-05-09T18:36:05.082Z,8.23
2024-05-09T18:38:32.779Z,9.65
2024-05-09T18:41:00.626Z,7.25
2024-05-09T18:43:38.001Z,7.70
2024-05-09T18:46:10.130Z,15.70
2024-05-09T18:48:38.166Z,9.90
2024-05-09T18:51:06.218Z,11.55
2024-05-09T18:53:33.969Z,8.85
2024-05-09T18:56:01.695Z,8.20
2024-05-09T18:58:29.233Z,8.77
2024-05-09T19:00:59.127Z,8.57
2024-05-09T19:03:28.414Z,9.77
2024-05-09T19:05:56.386Z,10.63
2024-05-09T19:08:23.995Z,10.45
2024-05-09T19:10:53.365Z,9.00
2024-05-09T19:13:21.005Z,10.03
2024-05-09T19:15:48.676Z,9.68
2024-05-09T19:18:17.394Z,11.70
2024-05-09T19:20:45.236Z,11.73
2024-05-09T19:23:12.982Z,15.00
2024-05-09T19:25:40.711Z,12.63
2024-05-09T19:28:08.404Z,11.60
2024-05-09T19:30:40.412Z,10.65
2024-05-09T19:33:12.571Z,11.68
2024-05-09T19:35:41.750Z,12.75
2024-05-09T19:38:09.856Z,17.37
2024-05-09T19:40:38.786Z,20.13
2024-05-09T19:43:07.419Z,16.88
2024-05-09T19:45:36.093Z,18.33
2024-05-09T19:48:05.430Z,13.57
2024-05-09T19:50:41.342Z,13.07
2024-05-09T19:53:13.265Z,15.50
2024-05-09T19:55:41.763Z,11.40
2024-05-09T19:58:11.226Z,12.57
2024-05-09T20:00:41.927Z,11.00
2024-05-09T20:03:15.663Z,12.90
2024-05-09T20:05:46.728Z,9.93
2024-05-09T20:08:15.043Z,14.75
2024-05-09T20:10:42.970Z,10.52
2024-05-09T20:13:12.018Z,14.52
2024-05-09T20:15:40.286Z,13.53
2024-05-09T20:18:08.348Z,13.35
2024-05-09T20:20:40.252Z,10.95
2024-05-09T20:23:13.523Z,11.35
2024-05-09T20:25:42.304Z,13.18
2024-05-09T20:28:10.845Z,12.23
2024-05-09T20:30:39.160Z,13.18
2024-05-09T20:33:10.196Z,15.70
2024-05-09T20:35:38.389Z,14.25
2024-05-09T20:38:07.118Z,13.48
2024-05-09T20:40:37.986Z,12.27
2024-05-09T20:43:09.904Z,13.45
2024-05-09T20:45:39.247Z,13.40
2024-05-09T20:48:08.449Z,11.90
2024-05-09T20:50:40.331Z,12.32
2024-05-09T20:53:13.427Z,15.00
2024-05-09T20:55:43.492Z,14.15
2024-05-09T20:58:12.352Z,15.05
2024-05-09T21:00:45.248Z,19.77
2024-05-09T21:03:18.028Z,20.33
2024-05-09T21:05:48.544Z,20.07
2024-05-09T21:08:19.014Z,15.13
2024-05-09T21:10:47.859Z,18.92
2024-05-09T21:13:15.996Z,16.02
2024-05-09T21:15:49.208Z,20.27
2024-05-09T21:18:16.978Z,16.37
2024-05-09T21:20:44.811Z,14.73
2024-05-09T21:23:12.526Z,13.82
2024-05-09T21:25:40.230Z,15.63
2024-05-09T21:28:08.243Z,15.73
2024-05-09T21:30:41.591Z,14.40
2024-05-09T21:33:13.974Z,12.63
2024-05-09T21:35:46.013Z,14.32
2024-05-09T21:38:14.987Z,19.67
2024-05-09T21:40:43.530Z,13.25
2024-05-09T21:43:11.532Z,17.57
2024-05-09T21:45:39.537Z,17.75
2024-05-09T21:48:08.213Z,17.70
2024-05-09T21:50:40.325Z,17.60
2024-05-09T21:53:14.083Z,19.98
2024-05-09T21:55:50.872Z,18.80
2024-05-09T21:58:45.952Z,23.08
2024-05-09T22:01:16.626Z,23.02
2024-05-09T22:03:44.797Z,23.42
2024-05-09T22:06:19.718Z,25.30
2024-05-09T22:08:48.941Z,23.20
2024-05-09T22:11:19.023Z,20.50
2024-05-09T22:13:50.597Z,24.65
2024-05-09T22:16:18.336Z,22.25
2024-05-09T22:18:46.065Z,26.13
2024-05-09T22:21:13.771Z,25.10
2024-05-09T22:23:41.456Z,22.02
2024-05-09T22:26:09.388Z,23.88
2024-05-09T22:28:36.967Z,20.55
2024-05-09T22:31:04.712Z,22.08
2024-05-09T22:33:32.638Z,20.90
2024-05-09T22:36:00.406Z,21.67
2024-05-09T22:38:28.035Z,21.10
2024-05-09T22:40:55.653Z,19.17
2024-05-09T22:43:25.004Z,22.38
2024-05-09T22:45:55.169Z,22.70
2024-05-09T22:48:24.737Z,23.80
2024-05-09T22:53:50.425Z,20.30
2024-05-09T22:56:27.327Z,21.25
2024-05-09T22:58:55.627Z,20.07
2024-05-09T23:01:25.626Z,21.92
2024-05-09T23:03:54.849Z,22.45
2024-05-09T23:06:22.740Z,22.48
2024-05-09T23:09:15.455Z,24.23
2024-05-09T23:11:49.497Z,24.07
2024-05-09T23:14:17.072Z,21.30
2024-05-09T23:16:44.590Z,21.45
2024-05-09T23:19:12.318Z,16.02
2024-05-09T23:21:41.153Z,18.83
2024-05-09T23:24:08.818Z,15.97
2024-05-09T23:26:36.332Z,11.20
2024-05-09T23:29:04.088Z,11.70
2024-05-09T23:31:31.806Z,14.65
2024-05-09T23:33:59.592Z,13.70
2024-05-09T23:36:32.032Z,11.13
2024-05-09T23:39:00.397Z,11.27
2024-05-09T23:41:27.913Z,13.85
2024-05-09T23:43:55.437Z,11.02
2024-05-09T23:46:23.075Z,10.52
2024-05-09T23:48:51.684Z,11.67
2024-05-09T23:51:19.606Z,9.13
2024-05-09T23:53:50.786Z,11.65
2024-05-09T23:56:24.571Z,9.43
2024-05-09T23:58:52.241Z,8.68
